sensor_id;sensor_type;location;lat;lon;timestamp;P1;durP1;ratioP1;P2;durP2;ratioP2
30080;SDS011;16902;50.816;12.828;2023-12-20T00:00:37;1.10;;;1.08;;
30080;SDS011;16902;50.816;12.828;2023-12-20T00:05:39;1.48;;;1.38;;
30080;SDS011;16902;50.816;12.828;2023-12-20T00:10:45;1.10;;;1.05;;
30080;SDS011;16902;50.816;12.828;2023-12-20T00:15:47;1.25;;;1.15;;
30080;SDS011;16902;50.816;12.828;2023-12-20T00:20:49;1.25;;;1.17;;
30080;SDS011;16902;50.816;12.828;2023-12-20T00:25:51;0.68;;;0.65;;
30080;SDS011;16902;50.816;12.828;2023-12-20T00:30:53;1.48;;;1.38;;
30080;SDS011;16902;50.816;12.828;2023-12-20T00:35:55;1.45;;;1.27;;
30080;SDS011;16902;50.816;12.828;2023-12-20T00:40:57;0.88;;;0.88;;
30080;SDS011;16902;50.816;12.828;2023-12-20T00:45:59;1.17;;;1.13;;
30080;SDS011;16902;50.816;12.828;2023-12-20T00:51:01;1.00;;;0.93;;
30080;SDS011;16902;50.816;12.828;2023-12-20T00:56:04;0.82;;;0.82;;
30080;SDS011;16902;50.816;12.828;2023-12-20T01:01:06;0.93;;;0.93;;
30080;SDS011;16902;50.816;12.828;2023-12-20T01:06:08;0.98;;;0.88;;
30080;SDS011;16902;50.816;12.828;2023-12-20T01:11:10;1.08;;;1.08;;
30080;SDS011;16902;50.816;12.828;2023-12-20T01:16:12;1.85;;;0.73;;
30080;SDS011;16902;50.816;12.828;2023-12-20T01:21:14;0.47;;;0.47;;
30080;SDS011;16902;50.816;12.828;2023-12-20T01:26:16;1.23;;;1.13;;
30080;SDS011;16902;50.816;12.828;2023-12-20T01:31:18;0.60;;;0.60;;
30080;SDS011;16902;50.816;12.828;2023-12-20T01:36:20;0.65;;;0.65;;
30080;SDS011;16902;50.816;12.828;2023-12-20T01:41:22;0.40;;;0.40;;
30080;SDS011;16902;50.816;12.828;2023-12-20T01:46:24;0.60;;;0.60;;
30080;SDS011;16902;50.816;12.828;2023-12-20T01:51:27;0.45;;;0.45;;
30080;SDS011;16902;50.816;12.828;2023-12-20T01:56:29;0.60;;;0.60;;
30080;SDS011;16902;50.816;12.828;2023-12-20T02:01:33;0.45;;;0.45;;
30080;SDS011;16902;50.816;12.828;2023-12-20T02:06:35;0.40;;;0.40;;
30080;SDS011;16902;50.816;12.828;2023-12-20T02:11:39;0.50;;;0.50;;
30080;SDS011;16902;50.816;12.828;2023-12-20T02:16:41;0.47;;;0.47;;
30080;SDS011;16902;50.816;12.828;2023-12-20T02:21:43;0.52;;;0.52;;
30080;SDS011;16902;50.816;12.828;2023-12-20T02:26:45;0.40;;;0.40;;
30080;SDS011;16902;50.816;12.828;2023-12-20T02:31:47;0.70;;;0.70;;
30080;SDS011;16902;50.816;12.828;2023-12-20T02:36:49;0.93;;;0.93;;
30080;SDS011;16902;50.816;12.828;2023-12-20T02:41:51;0.40;;;0.40;;
30080;SDS011;16902;50.816;12.828;2023-12-20T02:46:53;0.35;;;0.35;;
30080;SDS011;16902;50.816;12.828;2023-12-20T02:51:55;0.47;;;0.47;;
30080;SDS011;16902;50.816;12.828;2023-12-20T02:56:57;0.40;;;0.40;;
30080;SDS011;16902;50.816;12.828;2023-12-20T03:01:59;0.40;;;0.40;;
30080;SDS011;16902;50.816;12.828;2023-12-20T03:07:01;0.75;;;0.47;;
30080;SDS011;16902;50.816;12.828;2023-12-20T03:12:03;0.40;;;0.40;;
30080;SDS011;16902;50.816;12.828;2023-12-20T03:22:10;0.30;;;0.30;;
30080;SDS011;16902;50.816;12.828;2023-12-20T03:27:12;0.43;;;0.43;;
30080;SDS011;16902;50.816;12.828;2023-12-20T03:32:13;0.50;;;0.50;;
30080;SDS011;16902;50.816;12.828;2023-12-20T03:37:15;0.30;;;0.30;;
30080;SDS011;16902;50.816;12.828;2023-12-20T03:42:17;0.40;;;0.40;;
30080;SDS011;16902;50.816;12.828;2023-12-20T03:47:19;0.30;;;0.30;;
30080;SDS011;16902;50.816;12.828;2023-12-20T03:52:20;0.45;;;0.45;;
30080;SDS011;16902;50.816;12.828;2023-12-20T03:57:22;0.88;;;0.57;;
30080;SDS011;16902;50.816;12.828;2023-12-20T04:02:24;0.35;;;0.35;;
30080;SDS011;16902;50.816;12.828;2023-12-20T04:07:26;0.30;;;0.30;;
30080;SDS011;16902;50.816;12.828;2023-12-20T04:12:28;0.40;;;0.40;;
30080;SDS011;16902;50.816;12.828;2023-12-20T04:17:29;1.40;;;0.50;;
30080;SDS011;16902;50.816;12.828;2023-12-20T04:22:31;0.40;;;0.40;;
30080;SDS011;16902;50.816;12.828;2023-12-20T04:27:33;0.45;;;0.45;;
30080;SDS011;16902;50.816;12.828;2023-12-20T04:32:34;0.38;;;0.38;;
30080;SDS011;16902;50.816;12.828;2023-12-20T04:37:36;0.50;;;0.50;;
30080;SDS011;16902;50.816;12.828;2023-12-20T04:42:38;0.40;;;0.40;;
30080;SDS011;16902;50.816;12.828;2023-12-20T04:47:41;0.38;;;0.38;;
30080;SDS011;16902;50.816;12.828;2023-12-20T04:52:43;0.50;;;0.50;;
30080;SDS011;16902;50.816;12.828;2023-12-20T04:57:45;0.47;;;0.47;;
30080;SDS011;16902;50.816;12.828;2023-12-20T05:02:47;0.40;;;0.40;;
30080;SDS011;16902;50.816;12.828;2023-12-20T05:07:49;0.50;;;0.50;;
30080;SDS011;16902;50.816;12.828;2023-12-20T05:12:51;0.60;;;0.60;;
30080;SDS011;16902;50.816;12.828;2023-12-20T05:17:53;0.60;;;0.60;;
30080;SDS011;16902;50.816;12.828;2023-12-20T05:22:54;0.30;;;0.30;;
30080;SDS011;16902;50.816;12.828;2023-12-20T05:27:56;0.50;;;0.50;;
30080;SDS011;16902;50.816;12.828;2023-12-20T05:32:58;0.47;;;0.47;;
30080;SDS011;16902;50.816;12.828;2023-12-20T05:38:00;0.70;;;0.70;;
30080;SDS011;16902;50.816;12.828;2023-12-20T05:43:01;0.43;;;0.43;;
30080;SDS011;16902;50.816;12.828;2023-12-20T05:48:04;0.52;;;0.52;;
30080;SDS011;16902;50.816;12.828;2023-12-20T05:53:06;2.33;;;1.05;;
30080;SDS011;16902;50.816;12.828;2023-12-20T05:58:07;0.35;;;0.35;;
30080;SDS011;16902;50.816;12.828;2023-12-20T06:03:09;0.30;;;0.30;;
30080;SDS011;16902;50.816;12.828;2023-12-20T06:08:13;0.32;;;0.32;;
30080;SDS011;16902;50.816;12.828;2023-12-20T06:13:15;0.43;;;0.43;;
30080;SDS011;16902;50.816;12.828;2023-12-20T06:18:16;1.30;;;0.95;;
30080;SDS011;16902;50.816;12.828;2023-12-20T06:23:18;0.80;;;0.80;;
30080;SDS011;16902;50.816;12.828;2023-12-20T06:28:20;0.55;;;0.55;;
30080;SDS011;16902;50.816;12.828;2023-12-20T06:33:22;0.70;;;0.65;;
30080;SDS011;16902;50.816;12.828;2023-12-20T06:38:24;0.43;;;0.43;;
30080;SDS011;16902;50.816;12.828;2023-12-20T06:43:25;0.75;;;0.60;;
30080;SDS011;16902;50.816;12.828;2023-12-20T06:48:46;0.52;;;0.52;;
30080;SDS011;16902;50.816;12.828;2023-12-20T06:53:48;0.82;;;0.82;;
30080;SDS011;16902;50.816;12.828;2023-12-20T06:58:50;0.70;;;0.70;;
30080;SDS011;16902;50.816;12.828;2023-12-20T07:03:52;0.82;;;0.82;;
30080;SDS011;16902;50.816;12.828;2023-12-20T07:08:53;1.52;;;0.90;;
30080;SDS011;16902;50.816;12.828;2023-12-20T07:13:55;1.08;;;1.08;;
30080;SDS011;16902;50.816;12.828;2023-12-20T07:18:57;0.47;;;0.47;;
30080;SDS011;16902;50.816;12.828;2023-12-20T07:23:59;1.00;;;1.00;;
30080;SDS011;16902;50.816;12.828;2023-12-20T07:29:01;0.52;;;0.52;;
30080;SDS011;16902;50.816;12.828;2023-12-20T07:34:02;0.40;;;0.40;;
30080;SDS011;16902;50.816;12.828;2023-12-20T07:39:04;0.68;;;0.68;;
30080;SDS011;16902;50.816;12.828;2023-12-20T07:44:06;0.60;;;0.60;;
30080;SDS011;16902;50.816;12.828;2023-12-20T07:49:08;1.75;;;0.82;;
30080;SDS011;16902;50.816;12.828;2023-12-20T07:54:11;0.63;;;0.63;;
30080;SDS011;16902;50.816;12.828;2023-12-20T07:59:13;0.90;;;0.90;;
30080;SDS011;16902;50.816;12.828;2023-12-20T08:04:29;1.35;;;0.93;;
30080;SDS011;16902;50.816;12.828;2023-12-20T08:09:32;0.90;;;0.90;;
30080;SDS011;16902;50.816;12.828;2023-12-20T08:14:35;0.50;;;0.50;;
30080;SDS011;16902;50.816;12.828;2023-12-20T08:19:36;1.20;;;1.08;;
30080;SDS011;16902;50.816;12.828;2023-12-20T08:24:38;0.70;;;0.70;;
30080;SDS011;16902;50.816;12.828;2023-12-20T08:29:40;0.82;;;0.82;;
30080;SDS011;16902;50.816;12.828;2023-12-20T08:34:42;0.90;;;0.90;;
30080;SDS011;16902;50.816;12.828;2023-12-20T08:39:45;1.70;;;0.82;;
30080;SDS011;16902;50.816;12.828;2023-12-20T08:44:47;0.95;;;0.95;;
30080;SDS011;16902;50.816;12.828;2023-12-20T08:49:48;0.80;;;0.80;;
30080;SDS011;16902;50.816;12.828;2023-12-20T08:54:50;0.80;;;0.80;;
30080;SDS011;16902;50.816;12.828;2023-12-20T08:59:53;0.80;;;0.80;;
30080;SDS011;16902;50.816;12.828;2023-12-20T09:04:55;0.63;;;0.63;;
30080;SDS011;16902;50.816;12.828;2023-12-20T09:09:57;0.57;;;0.57;;
30080;SDS011;16902;50.816;12.828;2023-12-20T09:15:00;0.60;;;0.60;;
30080;SDS011;16902;50.816;12.828;2023-12-20T09:20:04;0.60;;;0.60;;
30080;SDS011;16902;50.816;12.828;2023-12-20T09:25:09;0.60;;;0.60;;
30080;SDS011;16902;50.816;12.828;2023-12-20T09:30:12;1.33;;;1.17;;
30080;SDS011;16902;50.816;12.828;2023-12-20T09:35:26;0.75;;;0.70;;
30080;SDS011;16902;50.816;12.828;2023-12-20T09:40:28;0.80;;;0.80;;
30080;SDS011;16902;50.816;12.828;2023-12-20T09:45:31;1.95;;;1.45;;
30080;SDS011;16902;50.816;12.828;2023-12-20T09:50:33;1.10;;;1.08;;
30080;SDS011;16902;50.816;12.828;2023-12-20T09:55:35;0.85;;;0.85;;
30080;SDS011;16902;50.816;12.828;2023-12-20T10:00:38;1.08;;;0.98;;
30080;SDS011;16902;50.816;12.828;2023-12-20T10:05:40;1.10;;;1.10;;
30080;SDS011;16902;50.816;12.828;2023-12-20T10:10:45;0.93;;;0.85;;
30080;SDS011;16902;50.816;12.828;2023-12-20T10:15:49;1.83;;;1.08;;
30080;SDS011;16902;50.816;12.828;2023-12-20T10:20:52;0.63;;;0.63;;
30080;SDS011;16902;50.816;12.828;2023-12-20T10:25:58;0.90;;;0.90;;
30080;SDS011;16902;50.816;12.828;2023-12-20T10:31:02;1.65;;;1.55;;
30080;SDS011;16902;50.816;12.828;2023-12-20T10:36:04;0.98;;;0.98;;
30080;SDS011;16902;50.816;12.828;2023-12-20T10:41:07;1.52;;;1.42;;
30080;SDS011;16902;50.816;12.828;2023-12-20T10:46:10;2.72;;;1.05;;
30080;SDS011;16902;50.816;12.828;2023-12-20T10:51:14;1.30;;;1.30;;
30080;SDS011;16902;50.816;12.828;2023-12-20T10:56:20;0.98;;;0.98;;
30080;SDS011;16902;50.816;12.828;2023-12-20T11:01:25;1.92;;;1.80;;
30080;SDS011;16902;50.816;12.828;2023-12-20T11:11:56;1.27;;;1.27;;
30080;SDS011;16902;50.816;12.828;2023-12-20T11:17:11;3.13;;;1.80;;
30080;SDS011;16902;50.816;12.828;2023-12-20T11:22:21;1.30;;;1.30;;
30080;SDS011;16902;50.816;12.828;2023-12-20T11:27:24;1.50;;;1.50;;
30080;SDS011;16902;50.816;12.828;2023-12-20T11:37:32;1.52;;;1.52;;
30080;SDS011;16902;50.816;12.828;2023-12-20T11:42:38;1.70;;;1.63;;
30080;SDS011;16902;50.816;12.828;2023-12-20T11:47:45;1.42;;;1.42;;
30080;SDS011;16902;50.816;12.828;2023-12-20T11:52:49;1.75;;;1.67;;
30080;SDS011;16902;50.816;12.828;2023-12-20T11:57:53;2.30;;;2.20;;
30080;SDS011;16902;50.816;12.828;2023-12-20T12:02:56;1.83;;;1.73;;
30080;SDS011;16902;50.816;12.828;2023-12-20T12:07:59;2.30;;;2.20;;
30080;SDS011;16902;50.816;12.828;2023-12-20T12:13:01;2.22;;;2.13;;
30080;SDS011;16902;50.816;12.828;2023-12-20T12:18:03;1.77;;;1.77;;
30080;SDS011;16902;50.816;12.828;2023-12-20T12:23:06;2.00;;;1.92;;
30080;SDS011;16902;50.816;12.828;2023-12-20T12:28:08;6.53;;;2.45;;
30080;SDS011;16902;50.816;12.828;2023-12-20T12:33:10;2.55;;;2.20;;
30080;SDS011;16902;50.816;12.828;2023-12-20T12:38:13;2.22;;;2.13;;
30080;SDS011;16902;50.816;12.828;2023-12-20T12:43:17;2.05;;;2.03;;
30080;SDS011;16902;50.816;12.828;2023-12-20T12:48:19;2.30;;;2.30;;
30080;SDS011;16902;50.816;12.828;2023-12-20T12:53:21;2.00;;;2.00;;
30080;SDS011;16902;50.816;12.828;2023-12-20T12:58:23;2.70;;;2.60;;
30080;SDS011;16902;50.816;12.828;2023-12-20T13:03:26;2.20;;;2.10;;
30080;SDS011;16902;50.816;12.828;2023-12-20T13:08:28;2.35;;;2.35;;
30080;SDS011;16902;50.816;12.828;2023-12-20T13:13:31;2.25;;;2.15;;
30080;SDS011;16902;50.816;12.828;2023-12-20T13:18:33;2.97;;;2.05;;
30080;SDS011;16902;50.816;12.828;2023-12-20T13:23:35;2.20;;;2.10;;
30080;SDS011;16902;50.816;12.828;2023-12-20T13:28:41;2.45;;;2.35;;
30080;SDS011;16902;50.816;12.828;2023-12-20T13:33:43;2.00;;;2.00;;
30080;SDS011;16902;50.816;12.828;2023-12-20T13:38:45;1.80;;;1.80;;
30080;SDS011;16902;50.816;12.828;2023-12-20T13:43:47;1.88;;;1.88;;
30080;SDS011;16902;50.816;12.828;2023-12-20T13:48:49;2.45;;;2.35;;
30080;SDS011;16902;50.816;12.828;2023-12-20T13:53:51;2.17;;;2.05;;
30080;SDS011;16902;50.816;12.828;2023-12-20T13:58:53;2.30;;;2.22;;
30080;SDS011;16902;50.816;12.828;2023-12-20T14:03:55;2.63;;;2.50;;
30080;SDS011;16902;50.816;12.828;2023-12-20T14:08:57;2.30;;;2.10;;
30080;SDS011;16902;50.816;12.828;2023-12-20T14:13:59;1.88;;;1.77;;
30080;SDS011;16902;50.816;12.828;2023-12-20T14:19:00;2.10;;;2.10;;
30080;SDS011;16902;50.816;12.828;2023-12-20T14:24:04;2.20;;;2.10;;
30080;SDS011;16902;50.816;12.828;2023-12-20T14:29:07;2.28;;;2.25;;
30080;SDS011;16902;50.816;12.828;2023-12-20T14:34:09;2.30;;;2.20;;
30080;SDS011;16902;50.816;12.828;2023-12-20T14:39:11;1.92;;;1.92;;
30080;SDS011;16902;50.816;12.828;2023-12-20T14:44:14;1.92;;;1.83;;
30080;SDS011;16902;50.816;12.828;2023-12-20T14:49:16;1.38;;;1.38;;
30080;SDS011;16902;50.816;12.828;2023-12-20T14:54:18;1.67;;;1.58;;
30080;SDS011;16902;50.816;12.828;2023-12-20T14:59:22;1.10;;;1.10;;
30080;SDS011;16902;50.816;12.828;2023-12-20T15:04:24;1.55;;;1.55;;
30080;SDS011;16902;50.816;12.828;2023-12-20T15:09:30;1.70;;;1.60;;
30080;SDS011;16902;50.816;12.828;2023-12-20T15:14:32;1.30;;;1.30;;
30080;SDS011;16902;50.816;12.828;2023-12-20T15:19:34;1.45;;;1.45;;
30080;SDS011;16902;50.816;12.828;2023-12-20T15:24:36;1.10;;;1.10;;
30080;SDS011;16902;50.816;12.828;2023-12-20T15:29:43;2.22;;;2.13;;
30080;SDS011;16902;50.816;12.828;2023-12-20T15:34:45;0.90;;;0.90;;
30080;SDS011;16902;50.816;12.828;2023-12-20T15:39:47;1.38;;;1.27;;
30080;SDS011;16902;50.816;12.828;2023-12-20T15:44:49;5.38;;;1.60;;
30080;SDS011;16902;50.816;12.828;2023-12-20T15:49:51;1.10;;;1.10;;
30080;SDS011;16902;50.816;12.828;2023-12-20T15:54:53;2.22;;;2.13;;
30080;SDS011;16902;50.816;12.828;2023-12-20T15:59:55;1.38;;;1.38;;
30080;SDS011;16902;50.816;12.828;2023-12-20T16:04:56;1.45;;;1.35;;
30080;SDS011;16902;50.816;12.828;2023-12-20T16:09:58;1.15;;;1.15;;
30080;SDS011;16902;50.816;12.828;2023-12-20T16:15:01;1.13;;;1.13;;
30080;SDS011;16902;50.816;12.828;2023-12-20T16:20:04;1.35;;;1.25;;
30080;SDS011;16902;50.816;12.828;2023-12-20T16:25:07;1.67;;;1.50;;
30080;SDS011;16902;50.816;12.828;2023-12-20T16:30:09;1.17;;;1.17;;
30080;SDS011;16902;50.816;12.828;2023-12-20T16:35:11;1.48;;;1.38;;
30080;SDS011;16902;50.816;12.828;2023-12-20T16:40:13;1.23;;;1.23;;
30080;SDS011;16902;50.816;12.828;2023-12-20T16:45:15;1.30;;;1.30;;
30080;SDS011;16902;50.816;12.828;2023-12-20T16:50:17;1.10;;;1.10;;
30080;SDS011;16902;50.816;12.828;2023-12-20T16:55:19;1.17;;;1.17;;
30080;SDS011;16902;50.816;12.828;2023-12-20T17:00:21;1.63;;;1.55;;
30080;SDS011;16902;50.816;12.828;2023-12-20T17:05:24;1.20;;;1.10;;
30080;SDS011;16902;50.816;12.828;2023-12-20T17:10:26;1.05;;;1.05;;
30080;SDS011;16902;50.816;12.828;2023-12-20T17:15:27;1.17;;;1.08;;
30080;SDS011;16902;50.816;12.828;2023-12-20T17:20:29;1.60;;;1.50;;
30080;SDS011;16902;50.816;12.828;2023-12-20T17:25:31;0.70;;;0.70;;
30080;SDS011;16902;50.816;12.828;2023-12-20T17:30:33;1.27;;;1.27;;
30080;SDS011;16902;50.816;12.828;2023-12-20T17:35:36;1.58;;;1.48;;
30080;SDS011;16902;50.816;12.828;2023-12-20T17:40:37;0.88;;;0.88;;
30080;SDS011;16902;50.816;12.828;2023-12-20T17:45:41;1.05;;;1.05;;
30080;SDS011;16902;50.816;12.828;2023-12-20T17:50:43;1.05;;;1.05;;
30080;SDS011;16902;50.816;12.828;2023-12-20T17:55:46;1.58;;;1.25;;
30080;SDS011;16902;50.816;12.828;2023-12-20T18:00:48;0.90;;;0.90;;
30080;SDS011;16902;50.816;12.828;2023-12-20T18:05:50;0.77;;;0.77;;
30080;SDS011;16902;50.816;12.828;2023-12-20T18:10:52;0.75;;;0.75;;
30080;SDS011;16902;50.816;12.828;2023-12-20T18:15:54;1.30;;;1.27;;
30080;SDS011;16902;50.816;12.828;2023-12-20T18:20:55;1.08;;;1.08;;
30080;SDS011;16902;50.816;12.828;2023-12-20T18:25:59;1.02;;;1.02;;
30080;SDS011;16902;50.816;12.828;2023-12-20T18:31:00;1.23;;;1.17;;
30080;SDS011;16902;50.816;12.828;2023-12-20T18:36:03;0.80;;;0.80;;
30080;SDS011;16902;50.816;12.828;2023-12-20T18:41:05;1.00;;;1.00;;
30080;SDS011;16902;50.816;12.828;2023-12-20T18:46:07;1.88;;;1.30;;
30080;SDS011;16902;50.816;12.828;2023-12-20T18:51:09;0.98;;;0.98;;
30080;SDS011;16902;50.816;12.828;2023-12-20T18:56:11;1.20;;;1.17;;
30080;SDS011;16902;50.816;12.828;2023-12-20T19:01:12;1.15;;;1.15;;
30080;SDS011;16902;50.816;12.828;2023-12-20T19:06:14;0.95;;;0.95;;
30080;SDS011;16902;50.816;12.828;2023-12-20T19:11:16;1.00;;;1.00;;
30080;SDS011;16902;50.816;12.828;2023-12-20T19:16:19;1.10;;;1.10;;
30080;SDS011;16902;50.816;12.828;2023-12-20T19:21:21;1.27;;;1.27;;
30080;SDS011;16902;50.816;12.828;2023-12-20T19:26:23;0.90;;;0.90;;
30080;SDS011;16902;50.816;12.828;2023-12-20T19:31:24;1.00;;;1.00;;
30080;SDS011;16902;50.816;12.828;2023-12-20T19:36:26;2.50;;;1.13;;
30080;SDS011;16902;50.816;12.828;2023-12-20T19:41:28;1.50;;;1.40;;
30080;SDS011;16902;50.816;12.828;2023-12-20T19:46:29;1.00;;;1.00;;
30080;SDS011;16902;50.816;12.828;2023-12-20T19:51:31;1.10;;;1.10;;
30080;SDS011;16902;50.816;12.828;2023-12-20T19:56:33;0.90;;;0.90;;
30080;SDS011;16902;50.816;12.828;2023-12-20T20:01:34;1.05;;;1.05;;
30080;SDS011;16902;50.816;12.828;2023-12-20T20:06:40;1.05;;;1.05;;
30080;SDS011;16902;50.816;12.828;2023-12-20T20:11:42;1.08;;;1.08;;
30080;SDS011;16902;50.816;12.828;2023-12-20T20:16:43;0.93;;;0.93;;
30080;SDS011;16902;50.816;12.828;2023-12-20T20:21:46;0.80;;;0.80;;
30080;SDS011;16902;50.816;12.828;2023-12-20T20:26:48;0.90;;;0.90;;
30080;SDS011;16902;50.816;12.828;2023-12-20T20:31:49;0.80;;;0.80;;
30080;SDS011;16902;50.816;12.828;2023-12-20T20:36:51;0.98;;;0.90;;
30080;SDS011;16902;50.816;12.828;2023-12-20T20:41:53;1.00;;;1.00;;
30080;SDS011;16902;50.816;12.828;2023-12-20T20:46:55;0.98;;;0.98;;
30080;SDS011;16902;50.816;12.828;2023-12-20T20:51:57;0.98;;;0.98;;
30080;SDS011;16902;50.816;12.828;2023-12-20T20:56:59;1.35;;;1.33;;
30080;SDS011;16902;50.816;12.828;2023-12-20T21:02:01;0.80;;;0.80;;
30080;SDS011;16902;50.816;12.828;2023-12-20T21:07:04;1.00;;;1.00;;
30080;SDS011;16902;50.816;12.828;2023-12-20T21:12:06;1.05;;;1.05;;
30080;SDS011;16902;50.816;12.828;2023-12-20T21:17:07;0.88;;;0.88;;
30080;SDS011;16902;50.816;12.828;2023-12-20T21:22:09;1.02;;;1.02;;
30080;SDS011;16902;50.816;12.828;2023-12-20T21:27:11;1.10;;;1.10;;
30080;SDS011;16902;50.816;12.828;2023-12-20T21:32:13;1.13;;;1.10;;
30080;SDS011;16902;50.816;12.828;2023-12-20T21:37:15;0.90;;;0.90;;
30080;SDS011;16902;50.816;12.828;2023-12-20T21:42:17;1.00;;;1.00;;
30080;SDS011;16902;50.816;12.828;2023-12-20T21:47:19;0.90;;;0.90;;
30080;SDS011;16902;50.816;12.828;2023-12-20T21:52:21;0.82;;;0.82;;
30080;SDS011;16902;50.816;12.828;2023-12-20T21:57:23;0.98;;;0.98;;
30080;SDS011;16902;50.816;12.828;2023-12-20T22:02:25;0.70;;;0.70;;
30080;SDS011;16902;50.816;12.828;2023-12-20T22:07:27;0.70;;;0.70;;
30080;SDS011;16902;50.816;12.828;2023-12-20T22:12:28;0.82;;;0.80;;
30080;SDS011;16902;50.816;12.828;2023-12-20T22:17:30;0.50;;;0.50;;
30080;SDS011;16902;50.816;12.828;2023-12-20T22:22:32;0.80;;;0.80;;
30080;SDS011;16902;50.816;12.828;2023-12-20T22:27:34;0.98;;;0.98;;
30080;SDS011;16902;50.816;12.828;2023-12-20T22:32:36;0.80;;;0.80;;
30080;SDS011;16902;50.816;12.828;2023-12-20T22:37:39;0.80;;;0.80;;
30080;SDS011;16902;50.816;12.828;2023-12-20T22:42:43;0.63;;;0.63;;
30080;SDS011;16902;50.816;12.828;2023-12-20T22:47:45;1.65;;;1.25;;
30080;SDS011;16902;50.816;12.828;2023-12-20T22:52:48;0.90;;;0.90;;
30080;SDS011;16902;50.816;12.828;2023-12-20T22:57:49;0.70;;;0.70;;
30080;SDS011;16902;50.816;12.828;2023-12-20T23:02:51;0.95;;;0.95;;
30080;SDS011;16902;50.816;12.828;2023-12-20T23:07:54;0.77;;;0.77;;
30080;SDS011;16902;50.816;12.828;2023-12-20T23:12:56;2.58;;;0.90;;
30080;SDS011;16902;50.816;12.828;2023-12-20T23:17:58;0.77;;;0.77;;
30080;SDS011;16902;50.816;12.828;2023-12-20T23:23:01;0.82;;;0.82;;
30080;SDS011;16902;50.816;12.828;2023-12-20T23:28:03;0.60;;;0.60;;
30080;SDS011;16902;50.816;12.828;2023-12-20T23:33:05;0.88;;;0.88;;
30080;SDS011;16902;50.816;12.828;2023-12-20T23:38:07;1.45;;;1.23;;
30080;SDS011;16902;50.816;12.828;2023-12-20T23:43:10;0.77;;;0.77;;
30080;SDS011;16902;50.816;12.828;2023-12-20T23:48:12;1.08;;;1.08;;
30080;SDS011;16902;50.816;12.828;2023-12-20T23:53:15;0.75;;;0.75;;
30080;SDS011;16902;50.816;12.828;2023-12-20T23:58:17;0.70;;;0.70;;
